Time;durP1;ratioP1;P1;durP2;ratioP2;P2;SDS_P1;SDS_P2;PMS_P1;PMS_P2;Temp;Humidity;BMP_temperature;BMP_pressure;BME280_temperature;BME280_humidity;BME280_pressure;Samples;Min_cycle;Max_cycle;Signal;HPM_P1;HPM_P2
2023/10/23 00:00:12;;;;;;;0.83;0.50;;;;;;;16.35;100.00;95607.09;5132780;28;20435;-57
2023/10/23 00:02:41;;;;;;;0.63;0.63;;;;;;;16.42;100.00;95604.00;5132182;28;20936;-57
2023/10/23 00:05:09;;;;;;;0.50;0.40;;;;;;;16.60;100.00;95591.63;5132305;27;20434;-57
2023/10/23 00:07:38;;;;;;;0.40;0.30;;;;;;;16.80;100.00;95596.56;5134997;27;20442;-57
2023/10/23 00:10:08;;;;;;;0.70;0.50;;;;;;;16.92;100.00;95600.31;5136062;27;20471;-56
2023/10/23 00:12:38;;;;;;;0.40;0.30;;;;;;;16.93;100.00;95599.19;5136951;27;20438;-57
2023/10/23 00:15:07;;;;;;;0.80;0.70;;;;;;;16.95;100.00;95596.25;5136303;27;20449;-57
2023/10/23 00:17:36;;;;;;;4.80;0.40;;;;;;;16.57;100.00;95600.28;5136783;27;20457;-57
2023/10/23 00:20:05;;;;;;;0.90;0.63;;;;;;;16.15;100.00;95593.31;5136305;27;20499;-57
2023/10/23 00:22:34;;;;;;;0.57;0.57;;;;;;;16.33;100.00;95590.56;5136893;27;20453;-57
2023/10/23 00:25:02;;;;;;;0.40;0.20;;;;;;;16.48;100.00;95587.56;5136285;27;20430;-57
2023/10/23 00:27:30;;;;;;;0.50;0.30;;;;;;;16.51;100.00;95586.97;5136401;27;21007;-57
2023/10/23 00:30:01;;;;;;;0.50;0.30;;;;;;;16.03;100.00;95585.00;5135476;27;20430;-57
2023/10/23 00:32:29;;;;;;;1.47;0.67;;;;;;;16.17;100.00;95569.75;5136606;27;20439;-57
2023/10/23 00:34:58;;;;;;;0.50;0.40;;;;;;;16.40;100.00;95576.78;5135422;27;20441;-57
2023/10/23 00:37:27;;;;;;;1.07;0.87;;;;;;;16.43;100.00;95574.31;5136621;27;20441;-57
2023/10/23 00:39:55;;;;;;;0.50;0.30;;;;;;;16.60;100.00;95563.00;5136076;27;20461;-57
2023/10/23 00:42:24;;;;;;;0.73;0.53;;;;;;;16.70;100.00;95572.69;5135977;27;20462;-57
2023/10/23 00:44:52;;;;;;;0.57;0.40;;;;;;;16.69;100.00;95581.81;5135813;27;20514;-57
2023/10/23 00:47:22;;;;;;;2.47;0.50;;;;;;;16.65;100.00;95581.63;5135649;27;20446;-56
2023/10/23 00:49:51;;;;;;;1.13;1.03;;;;;;;16.57;100.00;95589.59;5135485;27;20482;-57
2023/10/23 00:52:20;;;;;;;1.03;0.53;;;;;;;16.62;100.00;95587.56;5135807;27;20499;-57
2023/10/23 00:54:48;;;;;;;0.40;0.30;;;;;;;16.64;100.00;95590.75;5136238;27;20426;-57
2023/10/23 00:57:17;;;;;;;0.50;0.30;;;;;;;16.25;100.00;95593.94;5135677;27;20430;-57
2023/10/23 00:59:46;;;;;;;0.40;0.20;;;;;;;16.42;100.00;95594.09;5135557;27;20438;-57
2023/10/23 01:02:15;;;;;;;0.60;0.37;;;;;;;16.56;100.00;95599.47;5134993;27;20431;-57
2023/10/23 01:04:46;;;;;;;0.47;0.30;;;;;;;16.57;100.00;95594.94;5135952;27;20426;-57
2023/10/23 01:07:14;;;;;;;0.50;0.30;;;;;;;16.52;100.00;95599.28;5135493;27;20434;-57
2023/10/23 01:09:43;;;;;;;0.50;0.30;;;;;;;16.46;100.00;95589.75;5125131;27;20535;-57
2023/10/23 01:12:11;;;;;;;0.90;0.40;;;;;;;16.31;100.00;95598.09;5133210;27;20846;-57
2023/10/23 01:14:39;;;;;;;2.00;0.90;;;;;;;16.12;100.00;95593.91;5135799;27;20444;-57
2023/10/23 01:17:08;;;;;;;0.97;0.90;;;;;;;15.82;100.00;95509.75;5121511;27;20797;-57
2023/10/23 01:19:36;;;;;;;0.50;0.30;;;;;;;16.38;100.00;95590.47;5135547;27;20442;-57
2023/10/23 01:22:06;;;;;;;0.80;0.37;;;;;;;16.37;100.00;95588.06;5135404;27;21097;-57
2023/10/23 01:24:40;;;;;;;2.70;0.70;;;;;;;15.87;100.00;95502.44;5135205;27;20892;-57
2023/10/23 01:27:10;;;;;;;0.67;0.60;;;;;;;16.31;100.00;95587.41;5134870;27;20832;-57
2023/10/23 01:29:39;;;;;;;0.50;0.30;;;;;;;15.82;100.00;95597.97;5135353;27;20838;-57
2023/10/23 01:32:07;;;;;;;0.67;0.67;;;;;;;15.66;100.00;95592.09;5135335;27;20438;-57
2023/10/23 01:34:36;;;;;;;1.00;0.67;;;;;;;15.72;100.00;95585.56;5135163;27;20845;-57
2023/10/23 01:37:05;;;;;;;0.40;0.30;;;;;;;15.49;100.00;95589.19;5135302;27;20435;-57
2023/10/23 01:39:33;;;;;;;0.50;0.30;;;;;;;15.33;100.00;95587.03;5135180;27;20438;-57
2023/10/23 01:42:02;;;;;;;0.50;0.40;;;;;;;15.22;100.00;95587.19;5135023;27;20430;-57
2023/10/23 01:44:32;;;;;;;19.57;0.87;;;;;;;15.47;100.00;95582.53;5135190;27;20809;-56
2023/10/23 01:47:00;;;;;;;0.60;0.50;;;;;;;15.67;100.00;95587.53;5134771;27;20446;-56
2023/10/23 01:49:29;;;;;;;0.50;0.30;;;;;;;15.63;100.00;95591.91;5134012;27;21003;-56
2023/10/23 01:51:58;;;;;;;0.77;0.47;;;;;;;15.59;100.00;95591.69;5134271;27;20438;-56
2023/10/23 01:54:26;;;;;;;0.60;0.30;;;;;;;15.70;100.00;95589.63;5134416;27;20431;-61
2023/10/23 01:56:55;;;;;;;0.73;0.73;;;;;;;15.85;100.00;95594.69;5134588;27;20508;-57
2023/10/23 01:59:23;;;;;;;0.73;0.53;;;;;;;15.66;100.00;95596.66;5133973;27;20449;-56
2023/10/23 02:01:53;;;;;;;0.50;0.37;;;;;;;15.68;100.00;95599.81;5134852;27;20885;-56
2023/10/23 02:04:22;;;;;;;0.50;0.30;;;;;;;15.55;100.00;95608.59;5107601;27;20879;-56
2023/10/23 02:06:50;;;;;;;0.60;0.40;;;;;;;15.60;100.00;95603.97;5133861;27;20443;-56
2023/10/23 02:09:19;;;;;;;0.60;0.60;;;;;;;15.45;100.00;95606.06;5133736;27;20470;-57
2023/10/23 02:11:47;;;;;;;0.60;0.60;;;;;;;15.59;100.00;95609.59;5134211;27;20828;-56
2023/10/23 02:14:16;;;;;;;0.40;0.30;;;;;;;15.79;100.00;95611.91;5134336;27;20465;-56
2023/10/23 02:16:44;;;;;;;0.50;0.47;;;;;;;15.73;100.00;95602.41;5134020;27;20465;-56
2023/10/23 02:19:14;;;;;;;0.40;0.30;;;;;;;15.74;100.00;95603.97;5134247;27;20507;-56
2023/10/23 02:21:49;;;;;;;1.17;0.70;;;;;;;15.77;100.00;95614.09;5133670;27;20933;-55
2023/10/23 02:24:18;;;;;;;0.70;0.50;;;;;;;15.86;100.00;95607.75;5134118;27;20433;-57
2023/10/23 02:26:47;;;;;;;0.70;0.40;;;;;;;15.76;100.00;95610.59;5134088;27;20459;-56
2023/10/23 02:29:15;;;;;;;1.00;0.70;;;;;;;15.13;100.00;95612.16;5133801;27;20466;-56
2023/10/23 02:31:44;;;;;;;0.70;0.50;;;;;;;15.30;100.00;95611.66;5134197;27;20520;-56
2023/10/23 02:34:14;;;;;;;0.50;0.40;;;;;;;15.57;100.00;95609.88;5133775;27;20434;-56
2023/10/23 02:36:42;;;;;;;0.40;0.30;;;;;;;15.58;100.00;95622.16;5133934;27;20426;-56
2023/10/23 02:39:11;;;;;;;1.10;1.10;;;;;;;15.58;100.00;95611.47;5134117;27;20435;-56
2023/10/23 02:41:39;;;;;;;1.03;0.70;;;;;;;15.59;100.00;95618.41;5133814;27;20986;-56
2023/10/23 02:44:08;;;;;;;0.80;0.50;;;;;;;15.67;100.00;95601.69;5133611;27;20438;-56
2023/10/23 02:46:38;;;;;;;0.50;0.40;;;;;;;15.69;100.00;95607.53;5134062;27;20438;-56
2023/10/23 02:49:06;;;;;;;0.50;0.33;;;;;;;15.60;100.00;95608.50;5120010;27;20470;-56
2023/10/23 02:51:38;;;;;;;0.80;0.40;;;;;;;15.45;100.00;95604.22;5133455;27;20458;-56
2023/10/23 02:54:07;;;;;;;0.40;0.30;;;;;;;15.47;100.00;95593.22;5133059;27;20834;-56
2023/10/23 02:56:36;;;;;;;0.87;0.57;;;;;;;15.56;100.00;95597.59;5133550;27;20434;-56
2023/10/23 02:59:05;;;;;;;0.70;0.30;;;;;;;15.64;100.00;95601.47;5133323;27;20439;-56
2023/10/23 03:01:34;;;;;;;0.50;0.30;;;;;;;15.54;100.00;95593.63;5133666;27;20439;-56
2023/10/23 03:04:02;;;;;;;0.50;0.40;;;;;;;15.64;100.00;95607.63;5133349;27;20459;-56
2023/10/23 03:06:31;;;;;;;0.50;0.40;;;;;;;15.30;100.00;95598.28;5133701;27;20439;-56
2023/10/23 03:09:03;;;;;;;0.50;0.40;;;;;;;15.07;100.00;95602.66;5132750;27;20533;-56
2023/10/23 03:11:31;;;;;;;1.07;0.50;;;;;;;15.31;100.00;95606.00;5133563;27;20457;-56
2023/10/23 03:14:00;;;;;;;0.50;0.30;;;;;;;15.59;100.00;95599.69;5132534;27;20449;-56
2023/10/23 03:16:29;;;;;;;0.80;0.47;;;;;;;15.66;100.00;95599.34;5133322;27;20499;-56
2023/10/23 03:18:57;;;;;;;0.97;0.90;;;;;;;15.49;100.00;95601.75;5132905;27;20442;-56
2023/10/23 03:21:26;;;;;;;0.80;0.60;;;;;;;15.56;100.00;95602.19;5132045;27;20446;-56
2023/10/23 03:23:55;;;;;;;0.83;0.70;;;;;;;15.64;100.00;95604.16;5130680;27;20517;-56
2023/10/23 03:26:24;;;;;;;2.00;0.90;;;;;;;15.67;100.00;95595.56;5126677;27;20485;-56
2023/10/23 03:28:53;;;;;;;0.73;0.50;;;;;;;15.37;100.00;95604.06;5132988;27;20438;-56
2023/10/23 03:31:21;;;;;;;0.60;0.40;;;;;;;15.45;100.00;95598.03;5132166;27;20477;-56
2023/10/23 03:33:50;;;;;;;0.50;0.40;;;;;;;15.40;100.00;95593.59;5132635;27;20445;-56
2023/10/23 03:36:19;;;;;;;0.40;0.30;;;;;;;15.40;100.00;95604.28;5131679;27;20443;-56
2023/10/23 03:38:48;;;;;;;7.53;1.70;;;;;;;15.25;100.00;95602.63;5132360;27;20818;-56
2023/10/23 03:41:16;;;;;;;0.70;0.37;;;;;;;15.19;100.00;95603.00;5132579;27;20719;-56
2023/10/23 03:43:46;;;;;;;0.67;0.30;;;;;;;15.21;100.00;95606.97;5132804;27;20494;-56
2023/10/23 03:46:14;;;;;;;0.40;0.30;;;;;;;15.28;100.00;95604.72;5132880;27;20503;-56
2023/10/23 03:48:43;;;;;;;1.00;0.80;;;;;;;15.37;100.00;95604.06;5132553;27;20489;-56
2023/10/23 03:51:11;;;;;;;0.60;0.50;;;;;;;15.38;100.00;95602.97;5132355;27;20478;-56
2023/10/23 03:53:40;;;;;;;0.60;0.40;;;;;;;15.39;100.00;95616.03;5132584;27;20430;-56
2023/10/23 03:56:08;;;;;;;0.50;0.40;;;;;;;15.25;100.00;95610.63;5132102;27;20449;-57
2023/10/23 03:58:37;;;;;;;0.60;0.60;;;;;;;15.26;100.00;95603.41;5132348;27;20431;-57
2023/10/23 04:01:07;;;;;;;0.50;0.40;;;;;;;15.10;100.00;95615.44;5132549;27;20445;-57
2023/10/23 04:03:35;;;;;;;1.00;0.63;;;;;;;14.68;100.00;95610.13;5131949;28;20434;-57
2023/10/23 04:06:04;;;;;;;0.50;0.30;;;;;;;14.97;100.00;95610.81;5132422;28;20449;-57
2023/10/23 04:08:33;;;;;;;4.83;0.30;;;;;;;15.08;100.00;95612.22;5132282;28;20438;-57
2023/10/23 04:11:03;;;;;;;1.60;1.50;;;;;;;15.06;100.00;95604.53;5132382;28;20469;-57
2023/10/23 04:13:34;;;;;;;2.40;0.80;;;;;;;15.08;100.00;95614.91;5132209;28;20504;-57
2023/10/23 04:16:03;;;;;;;1.00;0.80;;;;;;;14.86;100.00;95610.16;5132676;28;20465;-57
2023/10/23 04:18:33;;;;;;;5.67;1.40;;;;;;;14.95;100.00;95608.41;5131592;28;20972;-57
2023/10/23 04:21:06;;;;;;;0.90;0.77;;;;;;;14.71;100.00;95618.38;5131969;28;20434;-57
2023/10/23 04:23:36;;;;;;;0.50;0.30;;;;;;;14.82;100.00;95614.50;5132126;28;20434;-57
2023/10/23 04:26:05;;;;;;;1.17;1.10;;;;;;;14.78;100.00;95610.81;5131994;28;20485;-57
2023/10/23 04:28:35;;;;;;;0.50;0.50;;;;;;;14.54;100.00;95612.75;5131418;28;20438;-57
2023/10/23 04:31:03;;;;;;;3.80;1.07;;;;;;;14.57;100.00;95596.16;5131255;28;20469;-56
2023/10/23 04:33:34;;;;;;;0.60;0.50;;;;;;;14.66;100.00;95613.09;5132043;28;20431;-56
2023/10/23 04:36:03;;;;;;;2.20;0.60;;;;;;;14.41;100.00;95616.91;5117891;28;20498;-55
2023/10/23 04:38:32;;;;;;;1.93;0.73;;;;;;;14.07;100.00;95591.41;5131544;28;20438;-56
2023/10/23 04:41:01;;;;;;;0.83;0.57;;;;;;;14.17;100.00;95618.75;5131288;28;20435;-56
2023/10/23 04:43:29;;;;;;;0.50;0.43;;;;;;;13.95;100.00;95621.91;5131831;28;20809;-56
2023/10/23 04:45:58;;;;;;;0.70;0.70;;;;;;;13.78;100.00;95624.22;5131449;28;20966;-56
2023/10/23 04:48:26;;;;;;;1.67;0.60;;;;;;;14.37;100.00;95621.19;5131465;28;20525;-56
2023/10/23 04:51:00;;;;;;;0.60;0.40;;;;;;;14.76;100.00;95622.84;5130767;28;20555;-57
2023/10/23 04:53:28;;;;;;;0.50;0.40;;;;;;;15.00;100.00;95628.94;5134697;27;20442;-57
2023/10/23 04:55:58;;;;;;;0.60;0.40;;;;;;;15.09;100.00;95629.84;5134283;27;20977;-56
2023/10/23 04:58:27;;;;;;;0.60;0.60;;;;;;;15.11;100.00;95631.16;5135693;27;20534;-51
2023/10/23 05:00:55;;;;;;;0.60;0.37;;;;;;;15.08;100.00;95623.72;5135258;27;20430;-53
2023/10/23 05:03:24;;;;;;;0.40;0.30;;;;;;;15.16;100.00;95638.28;5135622;27;20582;-48
2023/10/23 05:05:53;;;;;;;0.80;0.60;;;;;;;15.19;100.00;95640.38;5135520;27;20434;-49
2023/10/23 05:08:24;;;;;;;0.50;0.30;;;;;;;15.37;100.00;95641.44;5135717;27;20435;-50
2023/10/23 05:10:52;;;;;;;0.50;0.30;;;;;;;15.50;100.00;95636.19;5135658;27;20474;-49
2023/10/23 05:13:20;;;;;;;0.80;0.60;;;;;;;15.46;100.00;95643.19;5135020;27;20439;-49
2023/10/23 05:15:49;;;;;;;0.50;0.40;;;;;;;15.45;100.00;95648.81;5135674;27;20445;-49
2023/10/23 05:18:18;;;;;;;0.60;0.30;;;;;;;15.36;100.00;95648.66;5121426;27;20503;-49
2023/10/23 05:20:46;;;;;;;0.40;0.23;;;;;;;15.36;100.00;95642.50;5135317;27;20500;-53
2023/10/23 05:23:15;;;;;;;0.60;0.57;;;;;;;15.44;100.00;95652.53;5135036;27;20445;-56
2023/10/23 05:25:48;;;;;;;0.40;0.30;;;;;;;15.57;100.00;95657.19;5134798;27;20441;-56
2023/10/23 05:28:16;;;;;;;2.50;0.73;;;;;;;15.71;100.00;95653.47;5134982;27;20437;-56
2023/10/23 05:30:45;;;;;;;0.60;0.53;;;;;;;15.66;100.00;95650.88;5134637;27;20470;-56
2023/10/23 05:33:13;;;;;;;0.60;0.57;;;;;;;15.93;100.00;95663.53;5134988;27;20430;-56
2023/10/23 05:35:42;;;;;;;0.70;0.40;;;;;;;16.13;100.00;95655.13;5135176;27;20932;-56
2023/10/23 05:38:10;;;;;;;0.57;0.57;;;;;;;15.76;100.00;95658.72;5134552;27;20443;-56
2023/10/23 05:40:39;;;;;;;0.87;0.87;;;;;;;15.73;100.00;95659.31;5135284;27;20445;-57
2023/10/23 05:43:08;;;;;;;0.60;0.50;;;;;;;16.05;100.00;95658.50;5133986;27;20457;-57
2023/10/23 05:45:37;;;;;;;2.90;1.23;;;;;;;16.03;100.00;95659.88;5134652;27;20983;-56
2023/10/23 05:48:06;;;;;;;1.33;1.10;;;;;;;16.31;100.00;95662.28;5134370;27;20445;-56
2023/10/23 05:50:35;;;;;;;0.90;0.60;;;;;;;16.55;100.00;95664.00;5134808;27;20466;-56
2023/10/23 05:53:03;;;;;;;6.33;1.23;;;;;;;16.62;100.00;95662.50;5134310;27;20430;-56
2023/10/23 05:55:35;;;;;;;2.10;1.27;;;;;;;16.48;100.00;95662.50;5134724;27;20530;-56
2023/10/23 05:58:03;;;;;;;2.53;2.43;;;;;;;16.32;100.00;95657.72;5134517;27;20431;-55
2023/10/23 06:00:33;;;;;;;2.33;2.03;;;;;;;16.80;100.00;95660.81;5134148;27;20534;-55
2023/10/23 06:03:02;;;;;;;1.10;1.00;;;;;;;17.03;100.00;95657.88;5134075;27;20940;-55
2023/10/23 06:05:31;;;;;;;1.80;1.70;;;;;;;16.64;100.00;95657.66;5130698;27;20435;-55
2023/10/23 06:07:59;;;;;;;4.83;1.63;;;;;;;16.30;100.00;95666.03;5127321;27;20966;-55
2023/10/23 06:10:28;;;;;;;1.70;1.60;;;;;;;16.46;100.00;95666.56;5133658;27;20434;-55
2023/10/23 06:12:56;;;;;;;0.80;0.70;;;;;;;16.72;100.00;95667.66;5134001;27;20826;-58
2023/10/23 06:15:25;;;;;;;1.00;0.50;;;;;;;16.94;100.00;95669.63;5134169;27;20453;-61
2023/10/23 06:17:55;;;;;;;0.70;0.70;;;;;;;16.94;100.00;95669.63;5134185;27;20502;-59
2023/10/23 06:20:23;;;;;;;1.17;0.90;;;;;;;17.27;100.00;95663.00;5133622;27;20431;-54
2023/10/23 06:22:52;;;;;;;0.50;0.50;;;;;;;17.62;100.00;95608.59;5134332;27;20438;-59
2023/10/23 06:25:20;;;;;;;0.50;0.30;;;;;;;18.97;92.15;95656.19;5133416;27;20452;-65
2023/10/23 06:27:48;;;;;;;0.50;0.30;;;;;;;19.22;89.29;95655.44;5133458;27;20467;-63
2023/10/23 06:30:17;;;;;;;0.50;0.37;;;;;;;19.03;86.80;95661.09;5130564;27;20930;-62
2023/10/23 06:32:46;;;;;;;0.50;0.40;;;;;;;18.87;87.98;95661.88;5133382;27;20561;-64
2023/10/23 06:35:16;;;;;;;1.27;0.80;;;;;;;18.43;86.28;95555.44;5132472;27;20426;-64
2023/10/23 06:37:44;;;;;;;0.40;0.30;;;;;;;19.39;84.61;95652.00;5133574;27;20963;-61
2023/10/23 06:40:14;;;;;;;1.20;0.47;;;;;;;18.86;85.31;95660.28;5133208;27;20959;-61
2023/10/23 06:42:42;;;;;;;1.10;0.60;;;;;;;18.13;96.39;95642.16;5133984;27;20439;-66
2023/10/23 06:45:11;;;;;;;0.70;0.70;;;;;;;18.46;96.14;95661.38;5133510;27;20475;-62
2023/10/23 06:47:39;;;;;;;0.60;0.60;;;;;;;18.35;94.64;95664.34;5133798;27;20487;-60
2023/10/23 06:50:10;;;;;;;0.70;0.50;;;;;;;18.67;92.55;95676.63;5099892;28;20440;-60
2023/10/23 06:52:40;;;;;;;0.60;0.40;;;;;;;19.07;90.00;95672.03;5127965;27;20473;-60
2023/10/23 06:55:09;;;;;;;9.10;1.00;;;;;;;19.09;90.79;95669.81;5132890;27;20474;-65
2023/10/23 06:57:38;;;;;;;0.97;0.57;;;;;;;18.79;87.42;95668.81;5133093;27;20462;-72
2023/10/23 07:00:07;;;;;;;1.07;0.57;;;;;;;18.94;86.37;95670.25;5133049;27;20445;-67
2023/10/23 07:02:36;;;;;;;0.43;0.40;;;;;;;19.62;82.73;95661.47;5132818;27;20763;-68
2023/10/23 07:05:05;;;;;;;0.80;0.40;;;;;;;20.24;81.30;95673.41;5133302;27;20450;-58
2023/10/23 07:07:33;;;;;;;0.70;0.57;;;;;;;19.89;78.68;95671.88;5133025;27;20426;-57
2023/10/23 07:10:05;;;;;;;8.53;1.33;;;;;;;20.58;78.06;95669.03;5133570;27;20438;-58
2023/10/23 07:12:33;;;;;;;0.70;0.70;;;;;;;20.92;76.97;95671.56;5106513;27;20505;-59
2023/10/23 07:15:02;;;;;;;0.60;0.60;;;;;;;21.26;75.25;95660.56;5132354;27;20438;-58
2023/10/23 07:17:31;;;;;;;1.00;1.00;;;;;;;20.83;78.07;95666.19;5133307;27;20447;-58
2023/10/23 07:19:59;;;;;;;0.50;0.40;;;;;;;20.77;75.57;95664.03;5132983;27;20525;-57
2023/10/23 07:22:28;;;;;;;1.63;1.37;;;;;;;20.58;75.37;95669.81;5132970;27;20438;-57
2023/10/23 07:24:56;;;;;;;1.10;0.87;;;;;;;20.87;74.90;95669.81;5133033;27;20422;-56
2023/10/23 07:27:26;;;;;;;12.40;0.67;;;;;;;20.81;74.63;95673.03;5132909;27;20466;-56
2023/10/23 07:29:58;;;;;;;0.60;0.43;;;;;;;20.81;73.71;95656.88;5132041;27;20434;-56
2023/10/23 07:32:25;;;;;;;0.67;0.67;;;;;;;20.75;74.29;95664.34;5133274;27;20831;-56
2023/10/23 07:34:54;;;;;;;0.90;0.37;;;;;;;20.95;73.83;95656.63;5132312;27;20442;-56
2023/10/23 07:37:23;;;;;;;4.13;0.53;;;;;;;21.19;73.11;95659.50;5132980;27;20466;-56
2023/10/23 07:39:52;;;;;;;0.73;0.67;;;;;;;20.86;74.99;95667.47;5126515;27;20567;-56
2023/10/23 07:42:20;;;;;;;4.50;1.50;;;;;;;21.03;73.31;95655.78;5125618;27;20439;-53
2023/10/23 07:44:50;;;;;;;0.73;0.73;;;;;;;20.58;74.67;95652.84;5122782;27;20434;-54
2023/10/23 07:47:20;;;;;;;0.70;0.57;;;;;;;21.06;73.96;95655.97;5125075;27;20463;-53
2023/10/23 07:53:39;;;;;;;0.63;0.60;;;;;;;22.11;68.85;95650.94;5107618;28;20566;-61
2023/10/23 07:56:08;;;;;;;4.33;1.03;;;;;;;22.06;68.30;95586.38;5124401;27;20536;-51
2023/10/23 07:58:37;;;;;;;11.07;0.70;;;;;;;22.18;70.10;95636.13;5124975;27;20445;-52
2023/10/23 08:08:48;;;;;;;0.93;0.80;;;;;;;22.78;68.31;95633.50;5126801;28;20511;-54
2023/10/23 08:11:17;;;;;;;1.30;0.80;;;;;;;23.01;66.93;95620.31;5132438;28;20893;-50
2023/10/23 08:13:45;;;;;;;2.67;1.13;;;;;;;23.03;66.65;95631.56;5131682;28;20466;-47
2023/10/23 08:16:13;;;;;;;1.27;1.17;;;;;;;21.83;69.02;95638.38;5132497;28;20921;-46
2023/10/23 08:18:42;;;;;;;1.47;0.80;;;;;;;21.85;70.25;95633.41;5131749;28;20430;-47
2023/10/23 08:21:12;;;;;;;27.33;1.17;;;;;;;22.27;68.68;95629.50;5132344;28;20448;-47
2023/10/23 08:23:41;;;;;;;2.70;1.00;;;;;;;23.06;66.85;95620.06;5132532;28;20483;-47
2023/10/23 08:26:11;;;;;;;6.17;0.93;;;;;;;22.44;67.55;95623.88;5131735;27;20478;-47
2023/10/23 08:28:41;;;;;;;0.60;0.53;;;;;;;22.91;67.61;95626.97;5135857;27;20435;-52
2023/10/23 08:31:29;;;;;;;0.83;0.83;;;;;;;22.53;67.99;95619.19;5136196;27;20445;-52
2023/10/23 08:34:00;;;;;;;3.80;0.87;;;;;;;22.90;69.28;95619.97;5136193;27;20561;-52
2023/10/23 08:36:29;;;;;;;0.93;0.93;;;;;;;22.20;70.32;95613.06;5132505;27;21275;-52
2023/10/23 08:38:57;;;;;;;3.70;1.50;;;;;;;22.37;70.14;95625.56;5126936;27;20483;-52
2023/10/23 08:41:27;;;;;;;1.13;1.03;;;;;;;22.85;69.24;95617.50;5135059;27;20439;-52
2023/10/23 08:43:56;;;;;;;1.50;1.37;;;;;;;22.95;70.15;95610.84;5135132;27;20470;-52
2023/10/23 08:46:26;;;;;;;0.90;0.90;;;;;;;22.30;70.63;95611.84;5134024;27;20446;-52
2023/10/23 08:48:55;;;;;;;0.70;0.60;;;;;;;22.64;69.28;95612.22;5134487;27;20521;-52
2023/10/23 08:51:24;;;;;;;1.67;0.97;;;;;;;22.71;69.42;95601.66;5134195;27;20434;-53
2023/10/23 08:53:56;;;;;;;0.83;0.83;;;;;;;23.56;67.40;95593.34;5134895;27;20474;-52
2023/10/23 08:56:42;;;;;;;0.40;0.30;;;;;;;23.81;65.03;95597.53;5135619;27;20473;-52
2023/10/23 08:59:11;;;;;;;1.73;0.90;;;;;;;24.18;63.90;95575.69;5134530;27;20430;-52
2023/10/23 09:01:40;;;;;;;0.50;0.50;;;;;;;23.48;64.65;95582.69;5134947;27;20438;-52
2023/10/23 09:04:10;;;;;;;1.00;0.50;;;;;;;22.77;66.65;95586.75;5118764;27;20431;-52
2023/10/23 09:06:42;;;;;;;0.50;0.50;;;;;;;22.80;66.46;95552.88;5133662;27;20445;-52
2023/10/23 09:09:11;;;;;;;0.60;0.37;;;;;;;22.88;66.80;95583.59;5132741;27;20900;-52
2023/10/23 09:11:44;;;;;;;0.67;0.63;;;;;;;22.59;67.14;95584.63;5135725;27;20546;-52
2023/10/23 09:14:23;;;;;;;0.40;0.30;;;;;;;22.16;69.64;95585.16;5134991;27;20480;-53
2023/10/23 09:16:52;;;;;;;0.80;0.60;;;;;;;21.85;70.73;95592.94;5135348;27;20434;-53
2023/10/23 09:19:26;;;;;;;1.80;1.70;;;;;;;21.62;71.98;95597.13;5135831;27;20438;-53
2023/10/23 09:21:56;;;;;;;1.83;0.47;;;;;;;21.96;70.46;95567.16;5135021;27;20538;-53
2023/10/23 09:24:24;;;;;;;1.13;0.70;;;;;;;21.85;71.42;95577.56;5128961;27;20439;-53
2023/10/23 09:26:54;;;;;;;5.43;1.13;;;;;;;21.90;72.04;95585.47;5135246;27;20466;-51
2023/10/23 09:29:24;;;;;;;0.93;0.83;;;;;;;22.99;69.30;95569.28;5121819;27;20450;-51
2023/10/23 09:31:54;;;;;;;0.63;0.63;;;;;;;23.70;66.51;95569.41;5134878;27;20453;-52
2023/10/23 09:34:23;;;;;;;0.50;0.50;;;;;;;24.13;63.94;95519.06;5135586;27;20486;-53
2023/10/23 09:36:52;;;;;;;0.70;0.70;;;;;;;25.05;62.34;95551.78;5134319;27;20435;-53
2023/10/23 09:39:22;;;;;;;1.47;1.47;;;;;;;25.45;61.60;95546.03;5134913;27;20427;-54
2023/10/23 09:41:52;;;;;;;0.90;0.90;;;;;;;26.06;58.59;95540.59;5133722;27;20437;-55
2023/10/23 09:44:24;;;;;;;0.60;0.50;;;;;;;26.54;56.86;95539.06;5134584;27;20482;-56
2023/10/23 09:46:54;;;;;;;1.90;1.80;;;;;;;27.04;57.21;95542.16;5134994;27;20996;-49
2023/10/23 09:49:24;;;;;;;1.53;1.43;;;;;;;27.03;56.83;95535.16;5134903;27;20543;-49
2023/10/23 09:51:58;;;;;;;4.87;0.50;;;;;;;27.58;54.09;95530.78;5135106;27;20439;-49
2023/10/23 09:54:31;;;;;;;1.77;0.93;;;;;;;27.96;53.66;95539.75;5135029;27;20480;-48
2023/10/23 09:57:03;;;;;;;4.30;1.10;;;;;;;27.95;51.48;95467.34;5134582;27;20430;-48
2023/10/23 09:59:42;;;;;;;1.93;0.50;;;;;;;28.33;52.09;95522.19;5133971;27;20431;-48
2023/10/23 10:02:11;;;;;;;2.30;0.60;;;;;;;29.00;50.61;95518.38;5111049;27;20430;-48
2023/10/23 10:04:52;;;;;;;0.80;0.70;;;;;;;29.31;49.82;95479.56;5133953;27;20446;-48
2023/10/23 10:07:27;;;;;;;0.80;0.80;;;;;;;29.72;49.00;95508.16;5134439;27;20443;-48
2023/10/23 10:09:57;;;;;;;1.03;0.60;;;;;;;30.33;46.20;95500.84;5134106;27;20433;-48
2023/10/23 10:12:27;;;;;;;0.70;0.70;;;;;;;29.69;46.79;95451.56;5133814;27;20807;-52
2023/10/23 10:14:59;;;;;;;0.63;0.63;;;;;;;28.72;47.31;95492.50;5134302;27;20484;-52
2023/10/23 10:17:29;;;;;;;0.83;0.83;;;;;;;28.48;48.56;95497.78;5108856;27;20434;-51
2023/10/23 10:20:00;;;;;;;0.53;0.43;;;;;;;27.70;49.63;95495.13;5133599;27;20438;-52
2023/10/23 10:22:34;;;;;;;0.50;0.50;;;;;;;27.49;50.61;95485.97;5134638;27;20487;-52
2023/10/23 10:25:05;;;;;;;1.10;1.03;;;;;;;28.53;49.87;95495.47;5133593;27;20439;-52
2023/10/23 10:27:34;;;;;;;0.83;0.83;;;;;;;28.89;49.78;95486.34;5133683;27;20478;-52
2023/10/23 10:30:06;;;;;;;0.63;0.63;;;;;;;28.87;47.37;95490.63;5134217;27;20649;-52
2023/10/23 10:32:34;;;;;;;0.60;0.50;;;;;;;29.81;48.55;95484.00;5134393;27;20429;-52
2023/10/23 10:35:28;;;;;;;6.53;1.40;;;;;;;30.63;45.54;95471.16;5133996;27;20419;-52
2023/10/23 10:38:12;;;;;;;0.50;0.50;;;;;;;30.65;44.88;95472.31;5133479;27;20442;-51
2023/10/23 10:40:58;;;;;;;0.50;0.40;;;;;;;30.86;44.61;95468.75;5134136;27;20434;-51
2023/10/23 10:43:31;;;;;;;1.67;0.50;;;;;;;31.48;44.81;95455.22;5109203;27;20442;-51
2023/10/23 10:46:04;;;;;;;0.87;0.50;;;;;;;32.04;43.08;95448.63;5120708;27;20434;-51
2023/10/23 10:48:43;;;;;;;0.40;0.40;;;;;;;31.99;42.97;95446.31;5127721;27;20438;-51
2023/10/23 10:51:15;;;;;;;2.30;0.50;;;;;;;31.46;43.76;95432.16;5133150;27;20446;-51
2023/10/23 10:53:43;;;;;;;0.40;0.30;;;;;;;31.25;44.13;95443.97;5132715;27;20469;-51
2023/10/23 10:56:12;;;;;;;0.60;0.60;;;;;;;31.36;43.99;95431.78;5132722;27;20446;-51
2023/10/23 10:58:43;;;;;;;1.17;0.83;;;;;;;31.44;43.31;95438.00;5133256;27;20826;-51
2023/10/23 11:01:12;;;;;;;3.93;0.70;;;;;;;31.60;43.24;95432.09;5133466;27;20430;-51
2023/10/23 11:03:41;;;;;;;0.50;0.50;;;;;;;31.62;42.73;95429.72;5133447;27;20490;-51
2023/10/23 11:06:10;;;;;;;0.93;0.30;;;;;;;31.65;42.00;95423.44;5133068;27;20521;-51
2023/10/23 11:08:40;;;;;;;0.73;0.73;;;;;;;32.31;42.19;95418.63;5123239;27;20484;-51
2023/10/23 11:11:10;;;;;;;0.40;0.30;;;;;;;32.68;40.57;95420.63;5133018;27;20825;-51
2023/10/23 11:13:40;;;;;;;0.40;0.40;;;;;;;33.28;38.95;95417.97;5132367;27;20559;-51
2023/10/23 11:16:08;;;;;;;0.70;0.67;;;;;;;32.78;39.13;95415.03;5132915;27;20927;-51
2023/10/23 11:18:38;;;;;;;0.43;0.43;;;;;;;33.02;39.33;95410.41;5132801;27;20441;-51
2023/10/23 11:21:07;;;;;;;0.93;0.60;;;;;;;33.31;38.80;95397.91;5133188;27;20504;-51
2023/10/23 11:23:35;;;;;;;0.80;0.60;;;;;;;33.81;38.62;95392.47;5131821;27;20483;-50
2023/10/23 11:26:03;;;;;;;0.40;0.40;;;;;;;33.82;37.48;95394.06;5129856;27;20538;-51
2023/10/23 11:28:32;;;;;;;0.80;0.50;;;;;;;33.53;37.86;95390.13;5132090;27;20430;-51
2023/10/23 11:31:00;;;;;;;0.97;0.60;;;;;;;34.25;36.78;95385.91;5132615;27;20533;-51
2023/10/23 11:33:29;;;;;;;0.37;0.30;;;;;;;34.62;36.27;95382.88;5131718;27;20949;-51
2023/10/23 11:35:59;;;;;;;0.40;0.30;;;;;;;34.56;36.14;95384.56;5132280;27;20441;-52
2023/10/23 11:38:27;;;;;;;3.63;0.83;;;;;;;33.80;36.88;95380.72;5132344;27;20483;-54
2023/10/23 11:40:56;;;;;;;2.67;0.40;;;;;;;33.50;37.36;95380.75;5132453;27;20446;-55
2023/10/23 11:43:24;;;;;;;0.73;0.73;;;;;;;34.40;36.76;95376.97;5132649;27;20874;-56
2023/10/23 11:45:53;;;;;;;0.50;0.33;;;;;;;34.21;36.74;95363.94;5132576;27;20472;-54
2023/10/23 11:48:22;;;;;;;0.40;0.30;;;;;;;34.21;37.81;95358.44;5132635;27;20513;-55
2023/10/23 11:50:52;;;;;;;0.70;0.70;;;;;;;33.95;37.48;95358.50;5132303;27;20438;-54